Terminal Aerodrome Forecast
Issued by NWS Des Moines, IA

Home | Current Version | Previous Version | Text Only | Print | Product List | Glossary On
Versions: 1 2 3 4 5 6 7 8 9 10 11 12 13 14 15 16 17 18 19 20 21 22 23 24 25 26 27 28 29 30 31 32
000
FTUS43 KDMX 291739
TAFDSM
TAF
KDSM 291739Z 2918/3018 21008KT P6SM SCT015 OVC090
      TEMPO 2918/2919 -SHRA BKN015
     FM300000 24010KT P6SM SCT015 BKN050
     FM300400 31011KT 6SM BR VCSH BKN019 OVC035
     FM301000 34013G18KT P6SM BKN016 OVC028
     FM301500 35014KT P6SM SCT020 OVC030=

USA.gov is the U.S. government's official web portal to all federal, state and local government web resources and services.